Yates, Illinois
Current Conditions -  °F | °C
As of 3:55 PM on Wednesday 28 Jan 2015 (Local Time) from KPNT Reporting Station
Clear Clear  
Wind Chill: -4°   Ceiling: Unl
Heat Index:   Visibility: 10mi
Dew Point: -1°   Wind: 22mph
Humidity: 79%   Direction: 140°SE
Pressure: 30.04"   Gusts: 29mph
Location:  40.7409°N, 88.7189°W
Report Text: KPNT 282155Z AUTO 14019G25KT 10SM CLR 02/M01 A3004 RMK AO2 T00211012
Loading
Personal Weather Stations






























Interactive Weather Map New forecast layout! Learn more

10-Day Weather Forecast

Advertisements
Track Severe Weather on mobile